Time;durP1;ratioP1;P1;durP2;ratioP2;P2;SDS_P1;SDS_P2;PMS_P1;PMS_P2;Temp;Humidity;BMP_temperature;BMP_pressure;BME280_temperature;BME280_humidity;BME280_pressure;Samples;Min_cycle;Max_cycle;Signal;HPM_P1;HPM_P2
2021/06/20 00:01:07;;;;;;;7.45;4.08;;;;;;;22.32;67.21;99943.13;1737529;82;22212;-73
2021/06/20 00:03:34;;;;;;;4.92;3.05;;;;;;;22.21;67.73;99937.70;1712116;82;21015;-75
2021/06/20 00:06:06;;;;;;;7.08;3.92;;;;;;;22.16;67.75;99937.30;1731297;81;21923;-73
2021/06/20 00:08:33;;;;;;;6.03;3.10;;;;;;;22.09;68.28;99936.98;1737681;81;21544;-73
2021/06/20 00:10:59;;;;;;;10.35;3.15;;;;;;;21.96;68.81;99934.63;1737537;82;21026;-73
2021/06/20 00:13:26;;;;;;;8.75;2.55;;;;;;;21.90;69.11;99937.80;1737101;82;21034;-73
2021/06/20 00:15:54;;;;;;;9.55;3.77;;;;;;;21.86;69.20;99942.30;1737352;82;21082;-75
2021/06/20 00:18:21;;;;;;;6.80;3.85;;;;;;;21.80;69.32;99941.64;1759275;81;21060;-75
2021/06/20 00:20:48;;;;;;;5.55;3.15;;;;;;;21.77;69.44;99949.69;1767796;81;21519;-75
2021/06/20 00:23:14;;;;;;;3.47;2.45;;;;;;;21.74;69.65;99942.34;1767773;81;21019;-74
2021/06/20 00:25:41;;;;;;;8.15;2.70;;;;;;;21.74;69.50;99943.71;1741783;81;21074;-75
2021/06/20 00:28:08;;;;;;;2.87;2.08;;;;;;;21.80;69.33;99943.01;1766222;81;21035;-74
2021/06/20 00:30:36;;;;;;;6.90;2.40;;;;;;;21.85;69.15;99941.49;1767717;81;21143;-75
2021/06/20 00:33:05;;;;;;;7.62;2.75;;;;;;;21.88;69.03;99937.30;1767790;81;20977;-75
2021/06/20 00:35:31;;;;;;;4.58;2.17;;;;;;;21.86;69.04;99934.90;1738784;81;21030;-77
2021/06/20 00:37:58;;;;;;;7.92;3.37;;;;;;;21.88;68.97;99935.92;1739260;81;21059;-73
2021/06/20 00:40:24;;;;;;;8.55;2.37;;;;;;;21.80;69.39;99935.35;1740318;81;21055;-73
2021/06/20 00:42:51;;;;;;;6.67;1.98;;;;;;;21.71;69.81;99939.44;1720649;82;21111;-73
2021/06/20 00:45:19;;;;;;;3.90;1.72;;;;;;;21.64;70.15;99944.00;1736702;82;21023;-72
2021/06/20 00:47:46;;;;;;;2.72;2.52;;;;;;;21.58;70.41;99943.88;1719549;82;21052;-72
2021/06/20 00:50:13;;;;;;;7.85;2.20;;;;;;;21.52;70.63;99941.63;1734376;82;21496;-73
2021/06/20 00:52:40;;;;;;;7.53;3.98;;;;;;;21.51;70.66;99940.81;1670704;85;21051;-74
2021/06/20 00:55:08;;;;;;;5.65;2.27;;;;;;;21.46;71.00;99933.30;1702722;84;21150;-74
2021/06/20 00:57:34;;;;;;;6.67;2.72;;;;;;;21.43;71.08;99944.33;1684384;84;20941;-74
2021/06/20 01:00:03;;;;;;;4.53;2.15;;;;;;;21.40;71.27;99940.84;1703428;84;20960;-73
2021/06/20 01:02:29;;;;;;;10.50;2.40;;;;;;;21.36;71.42;99937.68;1675198;85;21587;-76
2021/06/20 01:04:55;;;;;;;5.58;2.40;;;;;;;21.34;71.55;99943.48;1683258;84;21040;-74
2021/06/20 01:07:23;;;;;;;11.12;3.02;;;;;;;21.28;71.72;99945.55;1680737;85;21166;-74
2021/06/20 01:09:52;;;;;;;5.47;2.60;;;;;;;21.28;71.67;99947.48;1703664;84;21011;-75
2021/06/20 01:12:20;;;;;;;7.05;2.50;;;;;;;21.29;71.80;99950.47;1652920;85;20979;-74
2021/06/20 01:14:48;;;;;;;4.92;2.60;;;;;;;21.25;71.89;99953.55;1683402;84;22616;-73
2021/06/20 01:17:15;;;;;;;9.10;2.80;;;;;;;21.24;72.03;99955.52;1696890;83;21107;-73
2021/06/20 01:19:42;;;;;;;6.95;2.62;;;;;;;21.19;72.25;99951.54;1683926;85;21049;-73
2021/06/20 01:22:31;;;;;;;6.08;3.27;;;;;;;21.16;72.31;99953.52;1705677;83;21070;-73
2021/06/20 01:25:02;;;;;;;6.20;3.10;;;;;;;21.16;72.38;99951.34;1706762;82;20956;-72
2021/06/20 01:27:40;;;;;;;4.17;2.67;;;;;;;21.11;72.53;99940.49;1723057;82;20999;-73
2021/06/20 01:30:11;;;;;;;2.85;2.20;;;;;;;21.09;72.60;99942.75;1720048;83;20980;-73
2021/06/20 01:32:37;;;;;;;3.83;2.77;;;;;;;21.08;72.55;99941.95;1720605;83;22170;-73
2021/06/20 01:35:05;;;;;;;22.40;4.85;;;;;;;21.08;72.53;99942.50;1700136;83;20987;-72
2021/06/20 01:37:31;;;;;;;10.98;6.15;;;;;;;21.09;72.54;99938.66;1732190;82;20975;-72
2021/06/20 01:39:59;;;;;;;9.93;5.85;;;;;;;21.10;72.58;99951.21;1734403;82;21532;-73
2021/06/20 01:42:25;;;;;;;13.22;6.72;;;;;;;21.12;72.38;99953.88;1735199;82;20920;-73
2021/06/20 01:44:57;;;;;;;15.23;6.15;;;;;;;21.04;72.38;99957.92;1735460;82;21105;-72
2021/06/20 01:47:24;;;;;;;6.12;4.50;;;;;;;21.04;72.38;99957.92;1686564;83;21086;-74
2021/06/20 01:49:51;;;;;;;13.10;4.37;;;;;;;21.07;72.44;99969.04;1681463;84;21046;-72
2021/06/20 01:52:20;;;;;;;4.87;3.55;;;;;;;21.07;72.36;99964.94;1681347;85;21072;-72
2021/06/20 01:54:51;;;;;;;5.95;3.47;;;;;;;21.08;72.34;99967.92;1682789;84;20995;-71
2021/06/20 01:57:26;;;;;;;3.87;3.27;;;;;;;21.05;72.46;99965.83;1682388;84;21115;-71
2021/06/20 01:59:54;;;;;;;5.55;3.58;;;;;;;21.04;72.57;99965.58;1667054;85;20983;-72
2021/06/20 02:02:21;;;;;;;4.35;4.00;;;;;;;21.03;72.59;99963.14;1687147;84;20996;-73
2021/06/20 02:04:50;;;;;;;7.40;2.83;;;;;;;21.06;72.51;99955.67;1686871;84;21024;-72
2021/06/20 02:07:18;;;;;;;5.60;2.80;;;;;;;21.08;72.41;99954.25;1698577;84;20908;-72
2021/06/20 02:09:47;;;;;;;2.65;2.30;;;;;;;21.08;72.33;99957.55;1702608;84;21043;-72
2021/06/20 02:12:14;;;;;;;2.20;1.95;;;;;;;21.11;72.21;99954.98;1702794;83;20987;-72
2021/06/20 02:14:40;;;;;;;3.70;2.20;;;;;;;21.10;72.11;99951.21;1702985;83;21023;-72
2021/06/20 02:17:31;;;;;;;18.10;3.52;;;;;;;21.14;72.05;99950.86;1692616;83;21005;-73
2021/06/20 02:20:02;;;;;;;3.37;2.60;;;;;;;21.19;72.22;99954.83;1691665;84;21008;-73
2021/06/20 02:22:29;;;;;;;2.80;2.20;;;;;;;21.20;71.83;99947.66;1702577;83;21943;-73
2021/06/20 02:24:56;;;;;;;4.28;2.20;;;;;;;21.21;71.73;99943.81;1702896;84;20909;-71
2021/06/20 02:27:22;;;;;;;4.28;2.12;;;;;;;21.22;71.65;99939.15;1690275;83;21548;-72
2021/06/20 02:29:53;;;;;;;7.25;2.50;;;;;;;21.23;71.53;99938.03;1689038;84;20987;-71
2021/06/20 02:32:19;;;;;;;8.90;2.50;;;;;;;21.20;71.55;99933.17;1702534;83;21552;-72
2021/06/20 02:34:46;;;;;;;12.47;3.25;;;;;;;21.15;71.65;99931.38;1687122;84;21008;-73
2021/06/20 02:37:13;;;;;;;2.67;1.85;;;;;;;21.14;71.74;99928.98;1656881;85;20924;-72
2021/06/20 02:39:40;;;;;;;7.35;2.15;;;;;;;21.12;71.81;99932.55;1690828;84;21140;-74
2021/06/20 02:42:07;;;;;;;2.85;1.80;;;;;;;21.11;71.78;99934.47;1655674;85;21321;-74
2021/06/20 02:44:35;;;;;;;1.60;1.50;;;;;;;21.12;71.74;99936.09;1672918;85;22894;-73
2021/06/20 02:47:02;;;;;;;2.70;1.72;;;;;;;21.13;71.53;99937.73;1638711;86;21830;-73
2021/06/20 02:49:29;;;;;;;6.80;4.05;;;;;;;21.11;71.53;99933.09;1690136;84;20890;-73
2021/06/20 02:51:56;;;;;;;5.53;2.17;;;;;;;21.10;71.44;99935.58;1680086;84;20971;-72
2021/06/20 02:54:22;;;;;;;2.50;1.60;;;;;;;21.12;71.40;99934.72;1684540;84;20981;-74
2021/06/20 02:56:49;;;;;;;2.67;2.47;;;;;;;21.12;71.27;99936.09;1688674;84;21000;-72
2021/06/20 02:59:15;;;;;;;1.95;1.55;;;;;;;21.10;71.21;99943.78;1701238;84;21088;-73
2021/06/20 03:01:42;;;;;;;3.77;2.20;;;;;;;21.09;71.21;99947.67;1692665;84;21556;-74
2021/06/20 03:04:08;;;;;;;5.00;2.35;;;;;;;21.13;71.14;99956.05;1702133;84;21058;-72
2021/06/20 03:06:35;;;;;;;2.65;1.67;;;;;;;21.12;71.23;99962.63;1675735;84;21055;-76
2021/06/20 03:09:03;;;;;;;4.08;2.00;;;;;;;21.12;71.21;99958.53;1700342;84;21488;-74
2021/06/20 03:11:30;;;;;;;2.40;2.20;;;;;;;21.11;71.27;99957.72;1680941;84;21071;-72
2021/06/20 03:13:56;;;;;;;7.85;2.10;;;;;;;21.12;71.19;99949.77;1704363;84;21097;-73
2021/06/20 03:16:23;;;;;;;6.05;2.55;;;;;;;21.16;71.05;99946.67;1702509;83;21706;-72
2021/06/20 03:18:49;;;;;;;3.50;2.22;;;;;;;21.21;70.88;99950.65;1694512;84;21042;-73
2021/06/20 03:21:17;;;;;;;19.67;3.35;;;;;;;21.25;70.81;99957.66;1673138;85;21056;-72
2021/06/20 03:23:45;;;;;;;4.20;1.77;;;;;;;21.24;70.87;99958.25;1673071;85;21541;-73
2021/06/20 03:26:13;;;;;;;4.87;2.00;;;;;;;21.22;70.89;99961.03;1680741;84;21500;-73
2021/06/20 03:28:40;;;;;;;2.98;1.70;;;;;;;21.23;70.97;99977.70;1700002;84;21065;-72
2021/06/20 03:31:06;;;;;;;2.40;2.17;;;;;;;21.24;70.97;99978.77;1664077;84;21062;-73
2021/06/20 03:33:34;;;;;;;2.45;2.02;;;;;;;21.25;71.01;99988.56;1704225;84;21047;-74
2021/06/20 03:36:03;;;;;;;4.35;2.50;;;;;;;21.28;70.88;99985.22;1726627;82;21074;-72
2021/06/20 03:38:30;;;;;;;4.45;1.90;;;;;;;21.33;70.70;99991.13;1675538;85;21587;-74
2021/06/20 03:40:56;;;;;;;3.47;1.65;;;;;;;21.35;70.69;99984.76;1675913;85;20986;-73
2021/06/20 03:43:23;;;;;;;3.80;2.00;;;;;;;21.37;70.68;99978.98;1692052;84;21075;-73
2021/06/20 03:45:50;;;;;;;6.20;2.35;;;;;;;21.34;70.70;99977.70;1674267;85;21615;-72
2021/06/20 03:48:17;;;;;;;5.10;2.30;;;;;;;21.32;70.76;99978.55;1673431;85;21757;-73
2021/06/20 03:50:44;;;;;;;2.72;1.70;;;;;;;21.31;70.87;99979.11;1658719;84;20970;-73
2021/06/20 03:53:11;;;;;;;3.15;1.95;;;;;;;21.30;70.64;99978.05;1638570;87;21531;-73
2021/06/20 03:55:40;;;;;;;3.08;2.20;;;;;;;21.31;70.62;99972.83;1651398;86;21567;-73
2021/06/20 03:58:07;;;;;;;8.80;2.12;;;;;;;21.35;70.62;99969.70;1656989;86;21063;-73
2021/06/20 04:00:34;;;;;;;3.72;1.70;;;;;;;21.35;70.45;99966.16;1627830;88;21314;-74
2021/06/20 04:03:02;;;;;;;3.62;2.00;;;;;;;21.30;70.57;99956.97;1649392;86;21564;-75
2021/06/20 04:05:28;;;;;;;4.12;1.67;;;;;;;21.30;70.44;99955.60;1682573;85;21544;-74
2021/06/20 04:07:55;;;;;;;2.40;1.92;;;;;;;21.33;70.35;99956.11;1658856;85;21030;-74
2021/06/20 04:10:22;;;;;;;6.28;1.95;;;;;;;21.36;70.16;99958.20;1681153;85;21014;-74
2021/06/20 04:12:48;;;;;;;5.22;2.60;;;;;;;21.40;69.93;99950.98;1655304;85;21137;-74
2021/06/20 04:15:16;;;;;;;3.62;1.67;;;;;;;21.43;69.72;99939.42;1655104;86;21503;-75
2021/06/20 04:17:44;;;;;;;2.40;1.65;;;;;;;21.43;69.61;99934.75;1696817;84;20932;-74
2021/06/20 04:20:13;;;;;;;4.50;2.60;;;;;;;21.47;69.32;99932.19;1691573;84;20960;-73
2021/06/20 04:22:44;;;;;;;5.87;2.20;;;;;;;21.47;69.40;99930.26;1683522;84;21003;-74
2021/06/20 04:25:15;;;;;;;6.35;2.40;;;;;;;21.49;69.34;99925.81;1657440;85;21125;-73
2021/06/20 04:27:44;;;;;;;5.67;2.55;;;;;;;21.48;69.04;99932.44;1696407;84;21055;-73
2021/06/20 04:30:13;;;;;;;7.60;1.70;;;;;;;21.46;69.40;99935.48;1693326;84;20972;-73
2021/06/20 04:32:40;;;;;;;6.12;3.30;;;;;;;21.50;69.56;99935.65;1705460;83;21789;-73
2021/06/20 04:35:08;;;;;;;4.00;1.60;;;;;;;21.52;69.34;99932.05;1693142;84;21063;-74
2021/06/20 04:37:34;;;;;;;2.58;1.40;;;;;;;21.54;69.75;99923.75;1683227;84;21251;-74
2021/06/20 04:40:03;;;;;;;3.37;2.00;;;;;;;21.57;69.02;99914.92;1715955;83;21098;-72
2021/06/20 04:42:37;;;;;;;4.87;1.70;;;;;;;21.62;68.75;99915.34;1705771;83;20952;-75
2021/06/20 04:45:01;;;;;;;4.75;1.50;;;;;;;21.63;68.52;99914.22;1683058;84;21575;-73
2021/06/20 04:47:27;;;;;;;7.20;1.72;;;;;;;21.67;68.25;99916.56;1642486;86;21023;-73
2021/06/20 04:49:55;;;;;;;2.20;1.60;;;;;;;21.70;68.25;99914.55;1655908;86;21275;-73
2021/06/20 04:52:21;;;;;;;3.00;2.12;;;;;;;21.75;68.12;99917.14;1669280;85;21071;-77
2021/06/20 04:54:49;;;;;;;3.75;2.42;;;;;;;21.79;68.07;99914.56;1705517;83;21543;-76
2021/06/20 04:57:24;;;;;;;7.92;1.92;;;;;;;21.83;68.16;99917.72;1654735;85;20948;-76
2021/06/20 04:59:54;;;;;;;10.60;1.67;;;;;;;21.91;67.84;99916.14;1677137;84;21000;-77
2021/06/20 05:02:22;;;;;;;2.27;2.08;;;;;;;21.98;67.38;99913.19;1685600;84;21552;-77
2021/06/20 05:04:49;;;;;;;4.92;1.80;;;;;;;22.07;67.05;99922.22;1692937;84;21476;-77
2021/06/20 05:07:15;;;;;;;4.22;1.67;;;;;;;22.12;66.75;99919.33;1699753;83;20987;-76
2021/06/20 05:09:42;;;;;;;1.77;1.50;;;;;;;22.18;66.26;99924.91;1681529;83;21539;-77
2021/06/20 05:12:09;;;;;;;5.03;1.65;;;;;;;22.24;66.06;99924.19;1679086;84;21654;-75
2021/06/20 05:14:40;;;;;;;7.90;2.02;;;;;;;22.28;65.85;99925.16;1655846;85;21342;-76
2021/06/20 05:17:06;;;;;;;2.87;2.05;;;;;;;22.33;65.68;99932.41;1658290;86;20947;-75
2021/06/20 05:19:33;;;;;;;2.50;1.92;;;;;;;22.42;65.21;99938.70;1659884;85;21076;-76
2021/06/20 05:21:59;;;;;;;4.30;1.65;;;;;;;22.49;64.96;99923.36;1702063;83;21054;-76
2021/06/20 05:24:26;;;;;;;3.47;1.40;;;;;;;22.55;64.64;99929.50;1693191;83;21062;-76
2021/06/20 05:26:52;;;;;;;2.35;1.70;;;;;;;22.60;63.89;99918.36;1686310;84;21894;-75
2021/06/20 05:29:19;;;;;;;3.17;2.00;;;;;;;22.63;63.61;99927.89;1697288;83;21002;-77
2021/06/20 05:31:45;;;;;;;3.55;1.70;;;;;;;22.65;63.61;99916.83;1673484;84;21480;-77
2021/06/20 05:34:13;;;;;;;1.90;1.60;;;;;;;22.67;63.34;99920.62;1677056;85;21486;-75
2021/06/20 05:36:40;;;;;;;2.17;1.95;;;;;;;22.70;63.40;99914.48;1659161;85;21099;-77
2021/06/20 05:39:07;;;;;;;2.75;2.02;;;;;;;22.72;62.85;99911.70;1691302;84;21732;-75
2021/06/20 05:41:33;;;;;;;5.22;1.75;;;;;;;22.74;62.78;99918.22;1703515;83;20980;-75
2021/06/20 05:44:00;;;;;;;4.53;1.75;;;;;;;22.76;62.78;99915.97;1657103;86;21365;-76
2021/06/20 05:46:26;;;;;;;3.33;1.72;;;;;;;22.81;62.76;99920.72;1682523;85;21054;-77
2021/06/20 05:48:53;;;;;;;9.43;3.15;;;;;;;22.87;62.42;99913.94;1650464;84;22135;-78
2021/06/20 05:51:19;;;;;;;8.08;2.80;;;;;;;22.94;62.44;99909.31;1677066;84;21258;-77
2021/06/20 05:53:46;;;;;;;6.45;1.75;;;;;;;22.99;62.25;99910.52;1696397;84;21130;-77
2021/06/20 05:56:12;;;;;;;1.60;1.50;;;;;;;23.04;61.67;99911.14;1701087;84;21008;-78
2021/06/20 05:58:39;;;;;;;13.58;1.80;;;;;;;23.08;61.70;99916.78;1687928;84;21132;-78
2021/06/20 06:01:05;;;;;;;3.90;1.52;;;;;;;23.12;60.63;99914.98;1694460;84;21039;-75
2021/06/20 06:03:35;;;;;;;5.85;2.20;;;;;;;23.19;60.86;99916.67;1673457;84;21180;-77
2021/06/20 06:06:03;;;;;;;2.22;1.72;;;;;;;23.25;60.33;99922.79;1661721;84;21066;-77
2021/06/20 06:08:30;;;;;;;2.95;1.30;;;;;;;23.27;60.19;99925.43;1688000;84;21059;-77
2021/06/20 06:10:57;;;;;;;6.00;2.02;;;;;;;23.31;60.32;99922.86;1682656;85;21093;-77
2021/06/20 06:13:23;;;;;;;7.83;1.80;;;;;;;23.35;60.36;99928.73;1676437;85;21588;-76
2021/06/20 06:15:50;;;;;;;6.92;2.20;;;;;;;23.40;60.53;99937.36;1653052;85;21127;-75
2021/06/20 06:18:16;;;;;;;2.33;2.12;;;;;;;23.45;60.23;99938.58;1675808;84;21063;-76
2021/06/20 06:20:44;;;;;;;2.50;2.30;;;;;;;23.50;59.93;99933.47;1702128;84;21023;-76
2021/06/20 06:23:12;;;;;;;4.30;1.98;;;;;;;23.56;59.43;99930.76;1631495;86;21094;-77
2021/06/20 06:25:40;;;;;;;3.40;2.22;;;;;;;23.59;59.20;99926.80;1702757;84;21564;-76
2021/06/20 06:28:07;;;;;;;2.52;1.80;;;;;;;23.64;59.08;99925.25;1680547;84;21024;-77
2021/06/20 06:30:33;;;;;;;6.08;2.25;;;;;;;23.68;58.78;99931.69;1698112;84;21563;-76
2021/06/20 06:32:59;;;;;;;12.10;2.83;;;;;;;23.73;58.72;99930.69;1626262;88;21070;-75
2021/06/20 06:35:25;;;;;;;5.87;2.12;;;;;;;23.80;58.89;99935.08;1672928;85;21016;-76
2021/06/20 06:37:52;;;;;;;8.20;2.20;;;;;;;23.87;58.82;99934.00;1654294;86;21113;-73
2021/06/20 06:40:18;;;;;;;2.55;1.65;;;;;;;23.90;58.35;99932.77;1631262;86;21094;-72
2021/06/20 06:42:46;;;;;;;6.83;1.72;;;;;;;23.96;58.35;99938.06;1699666;84;21410;-73
2021/06/20 06:45:16;;;;;;;14.25;3.00;;;;;;;24.00;58.07;99941.19;1681182;84;21036;-73
2021/06/20 06:47:43;;;;;;;4.70;2.00;;;;;;;24.05;58.17;99934.13;1655349;86;21084;-72
2021/06/20 06:50:10;;;;;;;13.68;2.37;;;;;;;24.10;57.85;99937.25;1693963;84;21119;-74
2021/06/20 06:52:36;;;;;;;7.83;2.92;;;;;;;24.07;57.33;99941.48;1692195;84;22123;-73
2021/06/20 06:55:05;;;;;;;7.75;2.05;;;;;;;24.09;57.53;99944.69;1691644;84;21029;-73
2021/06/20 06:57:32;;;;;;;6.72;2.08;;;;;;;24.11;57.83;99941.61;1692571;84;20956;-73
2021/06/20 07:00:00;;;;;;;3.20;2.02;;;;;;;24.16;57.96;99938.67;1672674;84;21095;-73
2021/06/20 07:02:26;;;;;;;8.48;2.83;;;;;;;24.23;58.02;99936.20;1665571;84;21062;-72
2021/06/20 07:04:53;;;;;;;7.75;2.42;;;;;;;24.30;57.86;99933.17;1700060;84;22255;-72
2021/06/20 07:07:19;;;;;;;9.15;1.92;;;;;;;24.37;57.77;99925.75;1656848;84;21033;-72
2021/06/20 07:09:46;;;;;;;2.70;1.47;;;;;;;24.44;57.37;99922.47;1679720;84;21093;-73
2021/06/20 07:12:12;;;;;;;2.87;1.27;;;;;;;24.45;56.38;99915.27;1679676;83;21025;-74
2021/06/20 07:14:39;;;;;;;5.28;1.57;;;;;;;24.46;55.91;99911.95;1700301;84;21061;-74
2021/06/20 07:17:05;;;;;;;3.25;1.72;;;;;;;24.46;55.23;99906.45;1679331;84;21234;-74
2021/06/20 07:19:34;;;;;;;2.65;2.02;;;;;;;24.49;55.34;99908.52;1700149;84;21075;-75
2021/06/20 07:22:03;;;;;;;9.08;1.80;;;;;;;24.49;54.94;99906.58;1698286;84;21037;-74
2021/06/20 07:24:29;;;;;;;2.40;2.20;;;;;;;24.52;54.81;99905.08;1707084;83;21051;-74
2021/06/20 07:26:56;;;;;;;10.78;2.22;;;;;;;24.56;54.94;99906.81;1698452;83;21036;-73
2021/06/20 07:29:22;;;;;;;5.33;1.50;;;;;;;24.61;55.19;99903.86;1719322;83;21098;-75
2021/06/20 07:31:48;;;;;;;13.43;2.15;;;;;;;24.69;54.76;99893.94;1698397;83;20953;-76
2021/06/20 07:34:15;;;;;;;7.08;2.40;;;;;;;24.74;54.82;99893.16;1719100;83;21060;-77
2021/06/20 07:36:43;;;;;;;8.13;1.72;;;;;;;24.76;54.50;99896.36;1698905;83;21016;-76
2021/06/20 07:39:09;;;;;;;6.22;3.20;;;;;;;24.79;53.73;99912.77;1718728;83;21003;-75
2021/06/20 07:41:36;;;;;;;2.05;1.85;;;;;;;24.87;53.67;99920.73;1719146;83;21206;-75
2021/06/20 07:44:04;;;;;;;8.38;2.98;;;;;;;24.92;53.49;99921.89;1693385;83;20933;-76
2021/06/20 07:46:30;;;;;;;4.97;1.30;;;;;;;24.98;53.48;99923.29;1670617;84;21522;-75
2021/06/20 07:48:57;;;;;;;7.87;1.65;;;;;;;25.02;53.15;99924.22;1693429;84;21053;-76
2021/06/20 07:51:24;;;;;;;8.83;1.60;;;;;;;25.09;52.57;99924.45;1705367;84;21076;-75
2021/06/20 07:53:50;;;;;;;3.10;1.72;;;;;;;25.11;52.22;99924.92;1705211;84;21225;-74
2021/06/20 07:56:17;;;;;;;9.15;1.62;;;;;;;25.09;51.49;99922.50;1705203;82;20941;-76
2021/06/20 07:58:44;;;;;;;8.13;2.33;;;;;;;25.11;51.53;99915.29;1653495;85;22217;-75
2021/06/20 08:01:10;;;;;;;4.05;2.15;;;;;;;25.14;50.78;99917.34;1660032;83;21182;-75
2021/06/20 08:03:37;;;;;;;8.28;1.27;;;;;;;25.15;51.26;99906.58;1711385;82;21461;-76
2021/06/20 08:06:04;;;;;;;4.58;1.32;;;;;;;25.18;51.12;99905.31;1707800;82;21137;-77
2021/06/20 08:08:31;;;;;;;13.70;1.82;;;;;;;25.24;49.56;99903.14;1740922;82;21015;-75
2021/06/20 08:10:58;;;;;;;15.65;2.30;;;;;;;25.30;50.03;99907.29;1712011;83;21516;-75
2021/06/20 08:13:26;;;;;;;5.53;1.67;;;;;;;25.36;49.83;99894.10;1670193;83;20931;-74
2021/06/20 08:15:53;;;;;;;4.03;1.95;;;;;;;25.40;49.11;99897.20;1741177;82;21042;-75
2021/06/20 08:18:20;;;;;;;3.15;1.15;;;;;;;25.47;49.04;99895.23;1741362;82;21481;-75
2021/06/20 08:20:46;;;;;;;22.30;2.52;;;;;;;25.50;47.92;99869.78;1681204;83;21575;-75
2021/06/20 08:23:13;;;;;;;2.22;1.15;;;;;;;25.51;48.08;99873.58;1704786;84;20951;-74
2021/06/20 08:25:46;;;;;;;6.58;1.77;;;;;;;25.55;47.94;99864.07;1680272;84;21050;-74
2021/06/20 08:28:13;;;;;;;5.63;1.60;;;;;;;25.58;48.41;99844.89;1706780;82;21027;-74
2021/06/20 08:30:40;;;;;;;2.70;1.30;;;;;;;25.62;48.29;99854.64;1708324;81;21332;-75
2021/06/20 08:33:07;;;;;;;5.37;1.20;;;;;;;25.65;48.35;99851.20;1707267;84;21036;-74
2021/06/20 08:35:33;;;;;;;8.43;2.33;;;;;;;25.67;47.95;99861.30;1683451;84;21020;-74
2021/06/20 08:38:00;;;;;;;8.25;2.50;;;;;;;25.68;48.09;99864.85;1707379;84;21675;-75
2021/06/20 08:40:26;;;;;;;10.08;2.12;;;;;;;25.68;47.48;99861.52;1683505;84;21052;-73
2021/06/20 08:42:53;;;;;;;6.92;1.32;;;;;;;25.73;48.15;99862.67;1688927;81;21878;-75
2021/06/20 08:45:19;;;;;;;9.08;1.55;;;;;;;25.82;48.17;99848.75;1767769;81;20979;-75
2021/06/20 08:47:47;;;;;;;5.37;2.50;;;;;;;25.88;47.48;99857.02;1767433;81;22279;-74
2021/06/20 08:50:13;;;;;;;2.90;1.45;;;;;;;25.95;47.37;99850.33;1728667;81;21008;-74
2021/06/20 08:52:40;;;;;;;2.10;1.52;;;;;;;26.01;46.95;99837.91;1723091;83;21012;-75
2021/06/20 08:55:09;;;;;;;9.90;1.72;;;;;;;26.09;46.97;99843.08;1723360;83;21010;-75
2021/06/20 08:57:41;;;;;;;8.28;1.85;;;;;;;26.18;47.12;99844.54;1724395;81;21015;-76
2021/06/20 09:00:14;;;;;;;4.87;1.98;;;;;;;26.29;47.09;99844.28;1720998;81;20924;-73
2021/06/20 09:02:41;;;;;;;4.20;2.05;;;;;;;26.41;46.52;99846.20;1684204;83;21659;-74
2021/06/20 09:05:10;;;;;;;8.93;1.40;;;;;;;26.54;46.27;99839.46;1755621;81;21540;-75
2021/06/20 09:07:41;;;;;;;3.90;1.40;;;;;;;26.68;46.60;99843.17;1680702;84;21155;-76
2021/06/20 09:10:21;;;;;;;4.10;1.55;;;;;;;26.80;45.17;99841.17;1694796;82;21534;-74
2021/06/20 09:12:56;;;;;;;6.50;1.47;;;;;;;26.85;45.76;99838.72;1734930;81;21095;-75
2021/06/20 09:15:27;;;;;;;4.58;1.80;;;;;;;26.91;44.97;99837.92;1689975;84;21580;-73
2021/06/20 09:17:59;;;;;;;13.18;2.47;;;;;;;26.92;43.73;99829.26;1682928;83;21100;-74
2021/06/20 09:20:42;;;;;;;2.33;1.70;;;;;;;26.96;44.51;99831.53;1722219;81;21166;-74
2021/06/20 09:23:12;;;;;;;4.65;1.35;;;;;;;27.05;44.35;99825.25;1659415;85;21114;-73
2021/06/20 09:25:42;;;;;;;5.00;1.40;;;;;;;27.21;43.44;99830.77;1682598;82;21042;-75
2021/06/20 09:28:12;;;;;;;12.53;2.55;;;;;;;27.29;43.68;99820.91;1701119;83;21576;-73
2021/06/20 09:30:52;;;;;;;20.40;2.30;;;;;;;27.36;43.35;99810.63;1720523;81;21042;-72
2021/06/20 09:33:20;;;;;;;8.28;2.15;;;;;;;27.46;42.15;99816.18;1683476;84;21094;-74
2021/06/20 09:35:53;;;;;;;13.03;1.60;;;;;;;27.56;41.47;99812.31;1717409;81;20995;-75
2021/06/20 09:38:23;;;;;;;4.03;1.40;;;;;;;27.68;41.67;99811.37;1718853;82;21076;-75
2021/06/20 09:41:03;;;;;;;2.08;1.22;;;;;;;27.77;41.02;99813.34;1685429;83;21119;-76
2021/06/20 09:43:32;;;;;;;5.35;1.30;;;;;;;27.84;39.92;99821.01;1660927;82;21555;-76
2021/06/20 09:45:59;;;;;;;4.25;1.70;;;;;;;27.90;39.65;99809.89;1659228;83;21263;-75
2021/06/20 09:48:33;;;;;;;4.50;1.77;;;;;;;27.98;39.38;99814.40;1733680;82;21051;-75
2021/06/20 09:51:21;;;;;;;18.62;2.45;;;;;;;27.99;38.43;99811.28;1766839;81;20999;-74
2021/06/20 09:53:49;;;;;;;3.60;1.22;;;;;;;28.02;39.10;99813.31;1767664;81;21074;-72
2021/06/20 09:56:29;;;;;;;2.75;1.42;;;;;;;28.14;38.33;99812.41;1761471;81;20884;-75
2021/06/20 09:59:01;;;;;;;13.03;2.05;;;;;;;28.20;37.80;99810.16;1741712;81;21049;-76
2021/06/20 10:01:35;;;;;;;3.42;1.00;;;;;;;28.16;38.34;99806.72;1712308;82;21051;-75
2021/06/20 10:04:02;;;;;;;8.30;1.82;;;;;;;28.17;37.98;99804.75;1712235;82;21046;-79
2021/06/20 10:06:29;;;;;;;10.55;1.42;;;;;;;28.22;38.47;99808.61;1719289;82;21035;-75
2021/06/20 10:08:58;;;;;;;3.67;1.87;;;;;;;28.29;38.25;99807.38;1712019;82;21050;-75
2021/06/20 10:11:24;;;;;;;2.87;1.50;;;;;;;28.41;37.91;99808.59;1748108;81;21123;-75
2021/06/20 10:13:53;;;;;;;1.62;1.17;;;;;;;28.51;37.80;99808.00;1735264;81;20943;-74
2021/06/20 10:16:33;;;;;;;5.70;1.20;;;;;;;28.56;37.45;99813.23;1733555;81;21520;-82
2021/06/20 10:19:15;;;;;;;7.55;1.55;;;;;;;28.61;37.40;99798.30;1724631;81;21509;-83
2021/06/20 10:21:47;;;;;;;1.15;0.93;;;;;;;28.66;37.00;99802.14;1736122;82;20965;-84
2021/06/20 10:24:20;;;;;;;9.90;1.20;;;;;;;28.76;37.59;99794.64;1731704;82;21095;-86
2021/06/20 10:27:00;;;;;;;9.30;1.57;;;;;;;28.85;36.93;99785.50;1759913;81;21500;-87
2021/06/20 10:29:31;;;;;;;6.47;1.40;;;;;;;28.95;36.37;99795.16;1767553;81;21054;-86
2021/06/20 10:32:00;;;;;;;8.95;1.65;;;;;;;29.06;36.83;99787.84;1715712;82;21037;-76
2021/06/20 10:34:32;;;;;;;4.10;1.40;;;;;;;29.23;37.01;99785.12;1711519;82;21031;-78
2021/06/20 10:37:02;;;;;;;4.90;0.88;;;;;;;29.30;36.13;99765.29;1712488;82;21782;-80
2021/06/20 10:39:28;;;;;;;12.25;2.35;;;;;;;29.28;36.65;99779.26;1711911;82;20979;-81
2021/06/20 10:42:09;;;;;;;4.83;1.95;;;;;;;29.32;36.17;99780.94;1738968;81;20947;-82
2021/06/20 10:44:52;;;;;;;4.75;1.47;;;;;;;29.44;36.04;99771.63;1757984;81;21035;-84
2021/06/20 10:47:32;;;;;;;12.73;1.77;;;;;;;29.56;36.41;99778.90;1758115;81;21535;-80
2021/06/20 10:50:07;;;;;;;7.97;1.25;;;;;;;29.68;36.50;99780.08;1757338;81;21331;-77
2021/06/20 10:52:34;;;;;;;5.47;1.52;;;;;;;29.76;35.93;99774.83;1726242;82;20941;-78
2021/06/20 10:55:13;;;;;;;4.72;1.50;;;;;;;29.80;35.77;99759.83;1725831;82;21013;-76
2021/06/20 10:57:47;;;;;;;11.35;1.87;;;;;;;29.87;35.34;99761.32;1689967;83;20985;-74
2021/06/20 11:00:33;;;;;;;18.20;2.55;;;;;;;29.93;35.15;99767.95;1711577;82;20980;-77
2021/06/20 11:03:27;;;;;;;6.15;1.52;;;;;;;29.96;33.47;99747.77;1721422;82;21059;-80
2021/06/20 11:06:04;;;;;;;2.75;1.12;;;;;;;30.02;32.45;99749.84;1683300;84;21027;-77
2021/06/20 11:08:43;;;;;;;6.40;1.60;;;;;;;30.05;32.79;99749.06;1683362;84;21031;-82
2021/06/20 11:11:21;;;;;;;12.03;1.52;;;;;;;30.18;33.79;99754.56;1693596;83;21072;-76
2021/06/20 11:13:59;;;;;;;11.18;1.50;;;;;;;30.31;32.61;99744.78;1735126;82;21548;-77
2021/06/20 11:16:32;;;;;;;9.48;1.00;;;;;;;30.38;32.38;99744.66;1747955;81;21316;-77
2021/06/20 11:19:13;;;;;;;5.33;1.27;;;;;;;30.41;31.92;99750.84;1721893;82;21089;-80
2021/06/20 11:21:57;;;;;;;11.45;1.42;;;;;;;30.43;31.58;99746.50;1725389;82;21561;-82
2021/06/20 11:24:33;;;;;;;8.25;0.85;;;;;;;30.46;31.55;99742.17;1725893;82;21164;-79
2021/06/20 11:27:07;;;;;;;6.62;0.90;;;;;;;30.45;30.87;99746.12;1726612;82;21140;-77
2021/06/20 11:29:59;;;;;;;2.80;1.12;;;;;;;30.49;31.68;99745.59;1713601;81;21102;-78
2021/06/20 11:32:31;;;;;;;5.40;1.00;;;;;;;30.53;31.21;99736.13;1668996;86;21023;-76
2021/06/20 11:35:06;;;;;;;18.27;2.25;;;;;;;30.56;31.28;99736.73;1730292;82;21039;-77
2021/06/20 11:37:52;;;;;;;8.33;1.17;;;;;;;30.60;31.42;99743.11;1748235;82;21012;-77
2021/06/20 11:40:22;;;;;;;9.88;1.70;;;;;;;30.69;30.52;99742.82;1722863;82;20996;-77